Haskins, Ohio
Current Conditions -  °F | °C
As of 1:52 AM on Wednesday 22 Oct 2014 (Local Time) from KTOL Reporting Station
Overcast Overcast  
Wind Chill: 40°   Ceiling: 1700
Heat Index: 44°   Visibility: 10mi
Dew Point: 36°   Wind: 8mph
Humidity: 73%   Direction: 350°N
Pressure: 30.2"   Gusts: NA
Location:  41.46°N, 83.71°W
Report Text: KTOL 220552Z 35007KT 10SM OVC017 07/02 A3020 RMK AO2 SLP231 T00670022 10072 20067 58002
Loading
Personal Weather Stations






























Interactive Weather Map
Tropical Storm Tracking
New forecast layout! Learn more

10-Day Weather Forecast

Advertisements
Track Severe Weather on mobile